Austin/Bergstrom AFB, Texas
Current Conditions -  °F | °C
As of 7:53 PM on Monday 20 Oct 2014 (Local Time) from KAUS Reporting Station
Broken Clouds Broken Clouds  
Wind Chill: 71°   Ceiling: 20000
Heat Index: 71°   Visibility: 10mi
Dew Point: 60°   Wind: 6mph
Humidity: 68%   Direction: 80°E
Pressure: 30.01"   Gusts: NA
Location:  30.2°N, 97.68°W
Report Text: KAUS 210053Z 08005KT 10SM BKN200 BKN250 22/16 A3001 RMK AO2 SLP156 T02170156
Loading
Personal Weather Stations






























Interactive Weather Map
Tropical Storm Tracking
New forecast layout! Learn more

10-Day Weather Forecast

Advertisements
Track Severe Weather on mobile